createdAt,value
2023-04-16T00:08:37.315Z,8.86
2023-04-16T00:18:41.392Z,8.83
2023-04-16T00:28:44.318Z,8.86
2023-04-16T00:38:49.104Z,8.80
2023-04-16T00:48:52.768Z,8.72
2023-04-16T00:58:57.604Z,8.69
2023-04-16T01:09:00.788Z,8.65
2023-04-16T01:19:05.117Z,8.78
2023-04-16T01:29:09.574Z,8.81
2023-04-16T01:39:15.862Z,8.71
2023-04-16T01:49:20.408Z,8.89
2023-04-16T01:59:23.433Z,8.66
2023-04-16T02:09:27.940Z,8.66
2023-04-16T02:19:31.622Z,8.71
2023-04-16T02:29:36.818Z,8.75
2023-04-16T02:39:49.681Z,8.63
2023-04-16T02:49:54.194Z,8.68
2023-04-16T02:59:57.545Z,8.61
2023-04-16T03:10:02.504Z,8.63
2023-04-16T03:20:06.869Z,8.72
2023-04-16T03:30:12.666Z,8.68
2023-04-16T03:40:15.888Z,8.65
2023-04-16T03:50:21.423Z,8.55
2023-04-16T04:00:24.545Z,8.50
2023-04-16T04:10:39.042Z,8.55
2023-04-16T04:20:43.582Z,8.61
2023-04-16T04:30:51.694Z,8.56
2023-04-16T04:40:57.253Z,8.48
2023-04-16T04:51:05.309Z,8.46
2023-04-16T05:01:09.528Z,8.50
2023-04-16T05:11:13.758Z,8.52
2023-04-16T05:21:16.789Z,8.48
2023-04-16T05:31:21.323Z,8.58
2023-04-16T05:41:24.671Z,8.53
2023-04-16T05:51:29.602Z,8.48
2023-04-16T06:01:34.371Z,8.52
2023-04-16T06:11:38.823Z,8.65
2023-04-16T06:21:41.930Z,8.56
2023-04-16T06:31:46.475Z,8.57
2023-04-16T06:41:49.581Z,8.60
2023-04-16T06:51:55.523Z,8.64
2023-04-16T07:01:58.780Z,8.66
2023-04-16T07:12:03.407Z,8.65
2023-04-16T07:22:06.428Z,8.67
2023-04-16T07:32:13.380Z,8.70
2023-04-16T07:42:17.788Z,8.74
2023-04-16T07:52:22.176Z,8.76
2023-04-16T08:02:25.635Z,9.08
2023-04-16T08:12:30.478Z,8.96
2023-04-16T08:22:34.608Z,8.98
2023-04-16T08:32:39.171Z,8.96
2023-04-16T08:42:46.935Z,9.09
2023-04-16T08:52:56.517Z,9.09
2023-04-16T09:03:00.590Z,9.10
2023-04-16T09:13:05.605Z,9.18
2023-04-16T09:23:59.841Z,9.17
2023-04-16T09:34:05.524Z,9.27
2023-04-16T09:44:08.602Z,9.26
2023-04-16T09:54:13.535Z,9.42
2023-04-16T10:04:17.653Z,9.47
2023-04-16T10:14:22.178Z,9.82
2023-04-16T10:24:26.350Z,10.10
2023-04-16T10:34:32.384Z,10.13
2023-04-16T10:44:36.113Z,10.16
2023-04-16T10:54:41.752Z,10.17
2023-04-16T11:04:46.489Z,10.33
2023-04-16T11:14:53.139Z,10.45
2023-04-16T11:24:57.579Z,10.43
2023-04-16T11:35:04.884Z,10.64
2023-04-16T11:45:09.539Z,10.91
2023-04-16T11:55:14.652Z,10.99
2023-04-16T12:05:33.375Z,10.88
2023-04-16T12:15:47.335Z,10.95
2023-04-16T12:25:52.647Z,10.93
2023-04-16T12:35:56.941Z,11.16
2023-04-16T12:46:00.793Z,11.03
2023-04-16T12:56:06.958Z,11.13
2023-04-16T13:06:10.345Z,11.27
2023-04-16T13:16:14.908Z,11.78
2023-04-16T13:26:18.144Z,12.09
2023-04-16T13:36:22.623Z,12.10
2023-04-16T13:46:27.393Z,12.03
2023-04-16T13:56:31.622Z,12.09
2023-04-16T14:06:35.308Z,12.21
2023-04-16T14:16:41.261Z,12.20
2023-04-16T14:26:44.697Z,12.14
2023-04-16T14:36:52.237Z,12.68
2023-04-16T14:46:55.409Z,12.29
2023-04-16T14:57:02.026Z,12.24
2023-04-16T15:07:06.799Z,12.34
2023-04-16T15:17:12.570Z,12.15
2023-04-16T15:37:47.496Z,12.11
2023-04-16T15:47:51.500Z,12.44
2023-04-16T15:57:57.821Z,12.58
2023-04-16T16:08:02.986Z,12.77
2023-04-16T16:18:08.049Z,12.55
2023-04-16T16:28:11.570Z,12.61
2023-04-16T16:38:16.601Z,12.51
2023-04-16T16:48:20.162Z,12.53
2023-04-16T16:58:26.018Z,12.41
2023-04-16T17:08:29.153Z,12.41
2023-04-16T17:18:33.984Z,12.24
2023-04-16T17:28:37.322Z,11.96
2023-04-16T17:38:44.676Z,11.85
2023-04-16T17:48:49.017Z,11.73
2023-04-16T17:58:53.880Z,11.72
2023-04-16T18:08:57.642Z,11.71
2023-04-16T18:19:03.378Z,11.74
2023-04-16T18:29:06.400Z,11.70
2023-04-16T18:39:11.006Z,11.69
2023-04-16T18:49:16.346Z,11.67
2023-04-16T18:59:20.819Z,11.64
2023-04-16T19:09:26.556Z,11.47
2023-04-16T19:19:31.475Z,11.47
2023-04-16T19:29:37.177Z,11.35
2023-04-16T19:39:41.666Z,12.58
2023-04-16T19:49:46.751Z,12.26
2023-04-16T19:59:52.975Z,11.50
2023-04-16T20:09:57.364Z,11.33
2023-04-16T20:20:08.912Z,11.36
2023-04-16T20:30:15.294Z,11.23
2023-04-16T20:40:21.290Z,11.27
2023-04-16T20:50:24.653Z,11.20
2023-04-16T21:00:29.346Z,11.22
2023-04-16T21:10:33.314Z,11.07
2023-04-16T21:20:41.068Z,11.08
2023-04-16T21:30:44.661Z,11.09
2023-04-16T21:40:50.674Z,10.99
2023-04-16T21:50:58.732Z,10.96
2023-04-16T22:01:03.496Z,10.97
2023-04-16T22:11:06.797Z,10.94
2023-04-16T22:21:11.638Z,10.91
2023-04-16T22:31:15.118Z,10.81
2023-04-16T22:41:19.960Z,10.76
2023-04-16T22:51:24.483Z,10.78
2023-04-16T23:01:28.822Z,10.70
2023-04-16T23:11:32.099Z,10.61
2023-04-16T23:21:37.673Z,10.72
2023-04-16T23:31:40.890Z,10.68
2023-04-16T23:41:45.314Z,10.64
2023-04-16T23:51:48.218Z,10.64
